createdAt,value
2022-12-31T00:00:01.557Z,91.4
2022-12-31T00:05:02.635Z,92.8
2022-12-31T00:10:01.587Z,94.0
2022-12-31T00:15:01.621Z,95.6
2022-12-31T00:20:06.515Z,97.2
2022-12-31T00:25:03.665Z,96.0
2022-12-31T00:30:06.502Z,96.8
2022-12-31T00:35:06.562Z,97.0
2022-12-31T00:45:01.572Z,96.2
2022-12-31T00:50:01.514Z,93.8
2022-12-31T00:55:01.611Z,91.6
2022-12-31T01:00:01.487Z,90.6
2022-12-31T01:05:01.613Z,91.1
2022-12-31T01:10:01.865Z,91.7
2022-12-31T01:16:42.278Z,93.8
2022-12-31T01:20:01.477Z,95.9
2022-12-31T01:25:06.569Z,96.0
2022-12-31T01:30:01.550Z,95.5
2022-12-31T01:35:01.713Z,94.2
2022-12-31T01:40:01.449Z,93.2
2022-12-31T01:45:01.568Z,92.2
2022-12-31T01:50:01.424Z,94.2
2022-12-31T01:55:01.546Z,96.6
2022-12-31T02:00:01.550Z,97.7
2022-12-31T02:05:01.509Z,99.1
2022-12-31T02:15:01.543Z,98.9
2022-12-31T02:20:01.422Z,98.0
2022-12-31T02:25:01.583Z,98.3
2022-12-31T02:40:00.937Z,161.8
2022-12-31T02:45:01.017Z,128.9
2022-12-31T02:50:00.869Z,117.1
2022-12-31T03:10:01.567Z,89.8
2022-12-31T03:15:01.584Z,90.8
2022-12-31T03:20:01.495Z,90.1
2022-12-31T03:25:02.103Z,100.0
2022-12-31T03:30:01.483Z,98.0
2022-12-31T03:35:01.555Z,98.3
2022-12-31T03:40:01.572Z,99.7
2022-12-31T03:45:01.672Z,99.2
2022-12-31T03:50:01.568Z,90.2
2022-12-31T03:55:01.588Z,89.6
2022-12-31T04:00:01.534Z,88.6
2022-12-31T04:05:01.659Z,86.2
2022-12-31T04:10:01.605Z,86.1
2022-12-31T04:15:01.613Z,85.9
2022-12-31T04:20:01.501Z,84.8
2022-12-31T04:25:01.627Z,84.6
2022-12-31T04:30:01.500Z,84.7
2022-12-31T04:35:01.683Z,86.0
2022-12-31T04:40:05.702Z,88.1
2022-12-31T04:45:02.575Z,91.8
2022-12-31T04:50:01.494Z,94.5
2022-12-31T04:55:01.602Z,94.4
2022-12-31T05:00:01.510Z,93.2
2022-12-31T05:05:01.587Z,92.4
2022-12-31T05:10:01.504Z,90.3
2022-12-31T05:15:02.044Z,88.4
2022-12-31T05:20:01.455Z,97.0
2022-12-31T05:25:01.576Z,98.7
2022-12-31T05:30:01.493Z,99.6
2022-12-31T05:35:01.555Z,100.6
2022-12-31T05:40:01.572Z,102.0
2022-12-31T05:45:01.529Z,96.0
2022-12-31T05:50:01.526Z,97.1
2022-12-31T05:55:01.553Z,95.5
2022-12-31T06:00:01.496Z,94.4
2022-12-31T06:05:01.602Z,93.0
2022-12-31T06:10:01.496Z,90.6
2022-12-31T06:15:02.007Z,89.0
2022-12-31T06:20:01.912Z,90.0
2022-12-31T06:25:01.529Z,91.6
2022-12-31T06:30:01.507Z,92.2
2022-12-31T06:35:01.500Z,92.5
2022-12-31T06:40:01.429Z,91.8
2022-12-31T06:45:01.462Z,91.4
2022-12-31T06:50:01.544Z,89.1
2022-12-31T06:55:01.454Z,89.0
2022-12-31T07:00:01.391Z,89.1
2022-12-31T07:05:01.847Z,89.8
2022-12-31T07:10:01.382Z,90.5
2022-12-31T07:30:01.546Z,83.0
2022-12-31T07:35:01.391Z,85.6
2022-12-31T07:50:01.821Z,85.8
2022-12-31T08:00:01.667Z,90.4
2022-12-31T08:05:01.800Z,88.5
2022-12-31T08:20:02.381Z,77.8
2022-12-31T08:25:01.389Z,80.9
2022-12-31T08:40:00.876Z,86.0
2022-12-31T09:00:01.265Z,92.8
2022-12-31T09:05:01.162Z,95.3
2022-12-31T09:10:01.173Z,91.6
2022-12-31T09:30:01.791Z,87.8
2022-12-31T09:35:02.781Z,88.4
2022-12-31T09:50:01.333Z,92.2
2022-12-31T10:10:01.533Z,85.0
2022-12-31T10:50:01.207Z,83.0
2022-12-31T11:10:01.529Z,87.2
2022-12-31T11:15:01.525Z,88.5
2022-12-31T11:20:01.426Z,89.5
2022-12-31T11:40:01.245Z,85.4
2022-12-31T12:00:06.709Z,84.8
2022-12-31T12:05:06.470Z,84.7
2022-12-31T12:10:01.641Z,85.6
2022-12-31T12:15:01.729Z,85.9
2022-12-31T12:20:01.638Z,86.0
2022-12-31T12:25:01.996Z,86.2
2022-12-31T12:30:01.531Z,86.9
2022-12-31T12:35:06.462Z,87.1
2022-12-31T12:40:01.495Z,86.0
2022-12-31T12:45:01.439Z,84.9
2022-12-31T12:50:01.406Z,85.3
2022-12-31T12:55:01.550Z,84.3
2022-12-31T13:10:06.714Z,88.0
2022-12-31T13:15:01.590Z,84.4
2022-12-31T13:20:01.583Z,93.1
2022-12-31T13:25:01.644Z,95.8
2022-12-31T13:30:02.006Z,94.8
2022-12-31T13:40:01.509Z,97.9
2022-12-31T13:45:01.804Z,95.6
2022-12-31T13:50:01.622Z,97.0
2022-12-31T14:10:01.448Z,104.2
2022-12-31T14:15:01.382Z,105.7
2022-12-31T14:20:01.300Z,106.3
2022-12-31T14:25:01.335Z,105.5
2022-12-31T14:30:01.344Z,102.1
2022-12-31T14:35:01.451Z,99.0
2022-12-31T14:40:01.294Z,94.4
2022-12-31T15:00:01.091Z,77.2
2022-12-31T15:20:01.640Z,82.2
2022-12-31T15:25:06.538Z,84.8
2022-12-31T15:40:01.113Z,81.0
2022-12-31T16:00:01.693Z,93.4
2022-12-31T16:05:01.633Z,88.2
2022-12-31T16:10:01.563Z,86.8
2022-12-31T16:15:01.454Z,84.9
2022-12-31T16:20:01.339Z,83.8
2022-12-31T16:40:01.174Z,81.8
2022-12-31T16:45:01.070Z,90.9
2022-12-31T16:50:00.999Z,88.1
2022-12-31T16:55:01.166Z,86.4
2022-12-31T17:00:01.059Z,85.0
2022-12-31T17:05:01.188Z,84.5
2022-12-31T17:10:06.050Z,82.5
2022-12-31T17:15:01.155Z,83.2
2022-12-31T17:20:01.063Z,84.3
2022-12-31T17:25:01.165Z,83.2
2022-12-31T17:30:01.045Z,83.3
2022-12-31T17:50:01.059Z,84.0
2022-12-31T18:10:01.613Z,86.8
2022-12-31T18:15:01.486Z,82.8
2022-12-31T18:20:05.045Z,82.0
2022-12-31T18:25:01.472Z,82.5
2022-12-31T18:30:04.920Z,82.7
2022-12-31T18:35:01.543Z,81.6
2022-12-31T18:40:01.463Z,96.0
2022-12-31T18:45:01.612Z,103.0
2022-12-31T18:50:01.592Z,111.4
2022-12-31T18:55:01.587Z,118.8
2022-12-31T19:00:01.441Z,128.6
2022-12-31T19:05:01.569Z,122.8
2022-12-31T19:20:01.487Z,120.0
2022-12-31T19:25:01.515Z,123.5
2022-12-31T19:30:01.475Z,115.7
2022-12-31T19:35:01.494Z,115.4
2022-12-31T19:40:01.519Z,118.2
2022-12-31T19:45:06.486Z,117.1
2022-12-31T19:50:01.354Z,110.0
2022-12-31T19:55:01.778Z,108.4
2022-12-31T20:00:01.370Z,102.0
2022-12-31T20:05:01.479Z,92.1
2022-12-31T20:10:01.505Z,86.4
2022-12-31T20:15:01.501Z,85.7
2022-12-31T20:20:01.370Z,86.8
2022-12-31T20:25:01.513Z,88.5
2022-12-31T20:30:01.369Z,90.0
2022-12-31T20:35:01.438Z,89.7
2022-12-31T20:40:01.453Z,88.1
2022-12-31T20:45:01.681Z,86.3
2022-12-31T20:50:11.354Z,90.1
2022-12-31T20:55:01.417Z,92.2
2022-12-31T21:00:01.463Z,96.4
2022-12-31T21:05:01.720Z,100.1
2022-12-31T21:10:01.305Z,101.5
2022-12-31T21:15:01.487Z,97.0
2022-12-31T21:20:01.342Z,101.7
2022-12-31T21:25:01.373Z,97.4
2022-12-31T21:30:18.055Z,93.8
2022-12-31T21:35:39.930Z,91.3
2022-12-31T21:40:01.369Z,91.0
2022-12-31T21:45:01.416Z,83.8
2022-12-31T21:50:01.339Z,84.2
2022-12-31T21:55:01.339Z,86.2
2022-12-31T22:00:24.312Z,86.6
2022-12-31T22:05:02.796Z,99.9
2022-12-31T22:10:01.680Z,101.0
2022-12-31T22:15:14.146Z,101.7
2022-12-31T22:20:25.629Z,99.4
2022-12-31T22:25:01.361Z,97.3
2022-12-31T22:30:01.397Z,83.2
2022-12-31T22:35:01.388Z,81.6
2022-12-31T22:40:01.691Z,79.6
2022-12-31T22:45:01.422Z,79.9
2022-12-31T22:50:01.316Z,86.7
2022-12-31T22:55:01.371Z,88.6
2022-12-31T23:00:01.315Z,92.0
2022-12-31T23:05:15.025Z,95.6
2022-12-31T23:10:01.287Z,100.8
2022-12-31T23:15:01.333Z,100.7
2022-12-31T23:20:01.299Z,102.4
2022-12-31T23:30:01.810Z,102.9
2022-12-31T23:35:06.211Z,99.1
2022-12-31T23:40:01.656Z,95.6
2022-12-31T23:45:01.331Z,93.6
2022-12-31T23:50:01.263Z,91.6
2022-12-31T23:55:01.353Z,87.4
